Not for real navigation | The accuracy of this data is not assured | See disclaimer for more information
ICAO NAME COUNTRY WIND Kt GUST Kt VIS TEMP/DEW BARO
YBDV 10 0 9999 41/13 29.71
YBDV 170400Z AUTO 18010KT 140V200 //// // ////// 41/13 Q1006
YTEF 11 0 9999 41/14 29.80
YTEF 170400Z AUTO 16011KT 9999 // NCD 41/14 Q1009
YAYE Ayers Rock Australia 9 0 9999 40/1 29.85
YAYE 170400Z AUTO 09009KT 010V120 9999 // NCD 40/01 Q1011
YBMA Mount Isa Amo Australia 6 0 9999 39/9 29.77
YBMA 170400Z AUTO 28006KT 250V310 9999 // NCD 39/09 Q1008 RF00.0/000.0
YLRE 0 0 9999 39/19 29.74
YLRE 170400Z AUTO /////KT 9999 // NCD 39/19 Q1007

Show more

Close Menu